sensor_id;sensor_type;location;lat;lon;timestamp;P1;durP1;ratioP1;P2;durP2;ratioP2
24157;SDS011;12316;50.904;4.200;2024-01-10T00:01:23;9.82;;;5.38;;
24157;SDS011;12316;50.904;4.200;2024-01-10T00:03:52;12.38;;;6.25;;
24157;SDS011;12316;50.904;4.200;2024-01-10T00:06:20;13.85;;;5.93;;
24157;SDS011;12316;50.904;4.200;2024-01-10T00:08:47;9.32;;;5.55;;
24157;SDS011;12316;50.904;4.200;2024-01-10T00:11:12;8.95;;;5.82;;
24157;SDS011;12316;50.904;4.200;2024-01-10T00:13:38;10.68;;;5.90;;
24157;SDS011;12316;50.904;4.200;2024-01-10T00:16:04;11.40;;;5.47;;
24157;SDS011;12316;50.904;4.200;2024-01-10T00:18:30;9.55;;;5.47;;
24157;SDS011;12316;50.904;4.200;2024-01-10T00:20:55;11.00;;;5.75;;
24157;SDS011;12316;50.904;4.200;2024-01-10T00:23:21;10.77;;;5.82;;
24157;SDS011;12316;50.904;4.200;2024-01-10T00:25:47;12.98;;;5.40;;
24157;SDS011;12316;50.904;4.200;2024-01-10T00:28:13;12.95;;;5.72;;
24157;SDS011;12316;50.904;4.200;2024-01-10T00:30:41;12.68;;;6.13;;
24157;SDS011;12316;50.904;4.200;2024-01-10T00:33:07;12.07;;;5.65;;
24157;SDS011;12316;50.904;4.200;2024-01-10T00:35:33;12.27;;;6.05;;
24157;SDS011;12316;50.904;4.200;2024-01-10T00:37:59;10.98;;;5.93;;
24157;SDS011;12316;50.904;4.200;2024-01-10T00:40:24;10.25;;;5.80;;
24157;SDS011;12316;50.904;4.200;2024-01-10T00:42:50;13.40;;;5.70;;
24157;SDS011;12316;50.904;4.200;2024-01-10T00:45:15;12.55;;;6.20;;
24157;SDS011;12316;50.904;4.200;2024-01-10T00:47:41;10.07;;;5.75;;
24157;SDS011;12316;50.904;4.200;2024-01-10T00:50:07;11.40;;;6.05;;
24157;SDS011;12316;50.904;4.200;2024-01-10T00:52:34;10.60;;;5.38;;
24157;SDS011;12316;50.904;4.200;2024-01-10T00:55:00;11.77;;;5.60;;
24157;SDS011;12316;50.904;4.200;2024-01-10T00:57:25;12.80;;;5.68;;
24157;SDS011;12316;50.904;4.200;2024-01-10T00:59:51;10.25;;;5.72;;
24157;SDS011;12316;50.904;4.200;2024-01-10T01:02:17;11.10;;;6.13;;
24157;SDS011;12316;50.904;4.200;2024-01-10T01:04:42;10.65;;;6.10;;
24157;SDS011;12316;50.904;4.200;2024-01-10T01:07:08;10.20;;;5.65;;
24157;SDS011;12316;50.904;4.200;2024-01-10T01:09:34;11.38;;;5.75;;
24157;SDS011;12316;50.904;4.200;2024-01-10T01:12:00;9.13;;;5.72;;
24157;SDS011;12316;50.904;4.200;2024-01-10T01:14:26;12.70;;;6.03;;
24157;SDS011;12316;50.904;4.200;2024-01-10T01:16:51;12.35;;;6.43;;
24157;SDS011;12316;50.904;4.200;2024-01-10T01:19:17;10.05;;;5.80;;
24157;SDS011;12316;50.904;4.200;2024-01-10T01:21:43;10.30;;;5.70;;
24157;SDS011;12316;50.904;4.200;2024-01-10T01:24:08;11.00;;;5.75;;
24157;SDS011;12316;50.904;4.200;2024-01-10T01:26:34;10.52;;;5.82;;
24157;SDS011;12316;50.904;4.200;2024-01-10T01:29:00;11.90;;;5.82;;
24157;SDS011;12316;50.904;4.200;2024-01-10T01:31:25;13.77;;;5.88;;
24157;SDS011;12316;50.904;4.200;2024-01-10T01:33:51;10.30;;;5.60;;
24157;SDS011;12316;50.904;4.200;2024-01-10T01:36:17;10.82;;;5.80;;
24157;SDS011;12316;50.904;4.200;2024-01-10T01:38:43;10.68;;;5.70;;
24157;SDS011;12316;50.904;4.200;2024-01-10T01:41:08;13.15;;;6.07;;
24157;SDS011;12316;50.904;4.200;2024-01-10T01:43:34;11.50;;;6.03;;
24157;SDS011;12316;50.904;4.200;2024-01-10T01:46:00;12.13;;;6.10;;
24157;SDS011;12316;50.904;4.200;2024-01-10T01:48:27;9.50;;;5.43;;
24157;SDS011;12316;50.904;4.200;2024-01-10T01:51:02;10.98;;;5.93;;
24157;SDS011;12316;50.904;4.200;2024-01-10T01:53:31;11.25;;;6.43;;
24157;SDS011;12316;50.904;4.200;2024-01-10T01:56:00;12.15;;;5.57;;
24157;SDS011;12316;50.904;4.200;2024-01-10T01:58:30;12.38;;;6.43;;
24157;SDS011;12316;50.904;4.200;2024-01-10T02:00:56;12.27;;;5.55;;
24157;SDS011;12316;50.904;4.200;2024-01-10T02:03:22;9.07;;;5.72;;
24157;SDS011;12316;50.904;4.200;2024-01-10T02:05:47;10.02;;;5.85;;
24157;SDS011;12316;50.904;4.200;2024-01-10T02:08:13;11.32;;;5.88;;
24157;SDS011;12316;50.904;4.200;2024-01-10T02:10:39;12.40;;;6.20;;
24157;SDS011;12316;50.904;4.200;2024-01-10T02:13:05;11.85;;;6.30;;
24157;SDS011;12316;50.904;4.200;2024-01-10T02:15:33;13.85;;;6.25;;
24157;SDS011;12316;50.904;4.200;2024-01-10T02:18:00;10.18;;;5.63;;
24157;SDS011;12316;50.904;4.200;2024-01-10T02:20:26;10.13;;;5.82;;
24157;SDS011;12316;50.904;4.200;2024-01-10T02:22:51;12.23;;;5.93;;
24157;SDS011;12316;50.904;4.200;2024-01-10T02:25:17;12.45;;;6.68;;
24157;SDS011;12316;50.904;4.200;2024-01-10T02:27:43;11.45;;;6.07;;
24157;SDS011;12316;50.904;4.200;2024-01-10T02:30:09;11.05;;;6.07;;
24157;SDS011;12316;50.904;4.200;2024-01-10T02:32:36;11.65;;;5.80;;
24157;SDS011;12316;50.904;4.200;2024-01-10T02:35:02;12.05;;;6.65;;
24157;SDS011;12316;50.904;4.200;2024-01-10T02:37:28;10.40;;;5.80;;
24157;SDS011;12316;50.904;4.200;2024-01-10T02:39:54;13.25;;;6.93;;
24157;SDS011;12316;50.904;4.200;2024-01-10T02:42:20;14.23;;;6.57;;
24157;SDS011;12316;50.904;4.200;2024-01-10T02:44:45;14.25;;;6.22;;
24157;SDS011;12316;50.904;4.200;2024-01-10T02:47:11;11.05;;;5.90;;
24157;SDS011;12316;50.904;4.200;2024-01-10T02:49:37;11.13;;;5.82;;
24157;SDS011;12316;50.904;4.200;2024-01-10T02:52:03;12.20;;;5.65;;
24157;SDS011;12316;50.904;4.200;2024-01-10T02:54:29;9.65;;;6.05;;
24157;SDS011;12316;50.904;4.200;2024-01-10T02:56:55;12.93;;;7.07;;
24157;SDS011;12316;50.904;4.200;2024-01-10T02:59:21;9.65;;;5.45;;
24157;SDS011;12316;50.904;4.200;2024-01-10T03:01:46;9.80;;;5.90;;
24157;SDS011;12316;50.904;4.200;2024-01-10T03:04:12;11.52;;;5.90;;
24157;SDS011;12316;50.904;4.200;2024-01-10T03:06:38;12.77;;;6.57;;
24157;SDS011;12316;50.904;4.200;2024-01-10T03:09:03;11.07;;;6.18;;
24157;SDS011;12316;50.904;4.200;2024-01-10T03:11:29;12.65;;;6.18;;
24157;SDS011;12316;50.904;4.200;2024-01-10T03:14:02;11.13;;;5.95;;
24157;SDS011;12316;50.904;4.200;2024-01-10T03:16:31;12.30;;;6.20;;
24157;SDS011;12316;50.904;4.200;2024-01-10T03:18:57;13.27;;;6.22;;
24157;SDS011;12316;50.904;4.200;2024-01-10T03:21:23;13.50;;;6.50;;
24157;SDS011;12316;50.904;4.200;2024-01-10T03:23:51;12.27;;;6.25;;
24157;SDS011;12316;50.904;4.200;2024-01-10T03:26:26;11.27;;;6.18;;
24157;SDS011;12316;50.904;4.200;2024-01-10T03:28:52;11.55;;;5.95;;
24157;SDS011;12316;50.904;4.200;2024-01-10T03:31:18;12.15;;;6.43;;
24157;SDS011;12316;50.904;4.200;2024-01-10T03:33:44;12.20;;;5.90;;
24157;SDS011;12316;50.904;4.200;2024-01-10T03:36:16;12.55;;;6.53;;
24157;SDS011;12316;50.904;4.200;2024-01-10T03:38:43;12.38;;;5.82;;
24157;SDS011;12316;50.904;4.200;2024-01-10T03:41:18;13.32;;;5.97;;
24157;SDS011;12316;50.904;4.200;2024-01-10T03:43:45;14.05;;;6.78;;
24157;SDS011;12316;50.904;4.200;2024-01-10T03:46:11;12.18;;;5.97;;
24157;SDS011;12316;50.904;4.200;2024-01-10T03:48:37;12.25;;;6.45;;
24157;SDS011;12316;50.904;4.200;2024-01-10T03:51:12;12.30;;;6.70;;
24157;SDS011;12316;50.904;4.200;2024-01-10T03:53:38;11.27;;;6.45;;
24157;SDS011;12316;50.904;4.200;2024-01-10T03:56:04;11.65;;;6.65;;
24157;SDS011;12316;50.904;4.200;2024-01-10T03:58:30;11.07;;;6.28;;
24157;SDS011;12316;50.904;4.200;2024-01-10T04:00:55;12.85;;;6.03;;
24157;SDS011;12316;50.904;4.200;2024-01-10T04:03:21;15.43;;;6.60;;
24157;SDS011;12316;50.904;4.200;2024-01-10T04:05:47;12.30;;;6.82;;
24157;SDS011;12316;50.904;4.200;2024-01-10T04:08:12;12.35;;;6.45;;
24157;SDS011;12316;50.904;4.200;2024-01-10T04:10:38;11.50;;;6.40;;
24157;SDS011;12316;50.904;4.200;2024-01-10T04:13:04;12.68;;;6.38;;
24157;SDS011;12316;50.904;4.200;2024-01-10T04:15:29;11.15;;;6.00;;
24157;SDS011;12316;50.904;4.200;2024-01-10T04:17:55;11.20;;;6.13;;
24157;SDS011;12316;50.904;4.200;2024-01-10T04:20:21;12.55;;;6.40;;
24157;SDS011;12316;50.904;4.200;2024-01-10T04:22:46;12.70;;;6.18;;
24157;SDS011;12316;50.904;4.200;2024-01-10T04:25:12;11.48;;;5.75;;
24157;SDS011;12316;50.904;4.200;2024-01-10T04:27:37;14.98;;;6.78;;
24157;SDS011;12316;50.904;4.200;2024-01-10T04:30:03;12.20;;;6.78;;
24157;SDS011;12316;50.904;4.200;2024-01-10T04:32:30;12.57;;;6.07;;
24157;SDS011;12316;50.904;4.200;2024-01-10T04:34:56;12.13;;;6.18;;
24157;SDS011;12316;50.904;4.200;2024-01-10T04:37:21;10.45;;;6.03;;
24157;SDS011;12316;50.904;4.200;2024-01-10T04:39:47;11.30;;;6.22;;
24157;SDS011;12316;50.904;4.200;2024-01-10T04:42:14;12.65;;;6.05;;
24157;SDS011;12316;50.904;4.200;2024-01-10T04:44:40;12.73;;;6.05;;
24157;SDS011;12316;50.904;4.200;2024-01-10T04:47:07;12.52;;;6.68;;
24157;SDS011;12316;50.904;4.200;2024-01-10T04:49:32;12.82;;;6.53;;
24157;SDS011;12316;50.904;4.200;2024-01-10T04:51:58;9.82;;;5.55;;
24157;SDS011;12316;50.904;4.200;2024-01-10T04:54:24;14.02;;;6.78;;
24157;SDS011;12316;50.904;4.200;2024-01-10T04:56:49;11.52;;;5.97;;
24157;SDS011;12316;50.904;4.200;2024-01-10T04:59:15;13.25;;;5.88;;
24157;SDS011;12316;50.904;4.200;2024-01-10T05:01:41;13.55;;;6.05;;
24157;SDS011;12316;50.904;4.200;2024-01-10T05:04:06;12.65;;;5.65;;
24157;SDS011;12316;50.904;4.200;2024-01-10T05:06:32;10.75;;;6.10;;
24157;SDS011;12316;50.904;4.200;2024-01-10T05:08:58;11.80;;;6.40;;
24157;SDS011;12316;50.904;4.200;2024-01-10T05:11:24;8.52;;;5.57;;
24157;SDS011;12316;50.904;4.200;2024-01-10T05:13:53;11.68;;;5.63;;
24157;SDS011;12316;50.904;4.200;2024-01-10T05:16:19;10.57;;;5.60;;
24157;SDS011;12316;50.904;4.200;2024-01-10T05:18:45;13.98;;;6.35;;
24157;SDS011;12316;50.904;4.200;2024-01-10T05:21:11;12.63;;;6.15;;
24157;SDS011;12316;50.904;4.200;2024-01-10T05:23:37;10.68;;;6.05;;
24157;SDS011;12316;50.904;4.200;2024-01-10T05:26:04;12.93;;;6.07;;
24157;SDS011;12316;50.904;4.200;2024-01-10T05:28:30;10.57;;;6.00;;
24157;SDS011;12316;50.904;4.200;2024-01-10T05:30:56;11.60;;;6.10;;
24157;SDS011;12316;50.904;4.200;2024-01-10T05:33:22;9.68;;;5.85;;
24157;SDS011;12316;50.904;4.200;2024-01-10T05:35:47;12.40;;;5.97;;
24157;SDS011;12316;50.904;4.200;2024-01-10T05:38:13;10.10;;;5.70;;
24157;SDS011;12316;50.904;4.200;2024-01-10T05:40:39;10.68;;;5.68;;
24157;SDS011;12316;50.904;4.200;2024-01-10T05:43:05;11.85;;;5.90;;
24157;SDS011;12316;50.904;4.200;2024-01-10T05:45:33;10.70;;;5.55;;
24157;SDS011;12316;50.904;4.200;2024-01-10T05:47:58;10.50;;;5.70;;
24157;SDS011;12316;50.904;4.200;2024-01-10T05:50:24;9.77;;;5.85;;
24157;SDS011;12316;50.904;4.200;2024-01-10T05:52:50;10.15;;;5.47;;
24157;SDS011;12316;50.904;4.200;2024-01-10T05:55:16;10.07;;;5.20;;
24157;SDS011;12316;50.904;4.200;2024-01-10T05:57:42;9.52;;;5.70;;
24157;SDS011;12316;50.904;4.200;2024-01-10T06:00:07;14.45;;;5.95;;
24157;SDS011;12316;50.904;4.200;2024-01-10T06:02:35;11.00;;;5.40;;
24157;SDS011;12316;50.904;4.200;2024-01-10T06:05:04;10.65;;;5.47;;
24157;SDS011;12316;50.904;4.200;2024-01-10T06:07:34;13.23;;;5.78;;
24157;SDS011;12316;50.904;4.200;2024-01-10T06:10:00;10.88;;;5.63;;
24157;SDS011;12316;50.904;4.200;2024-01-10T06:12:26;13.02;;;6.00;;
24157;SDS011;12316;50.904;4.200;2024-01-10T06:14:53;9.93;;;5.25;;
24157;SDS011;12316;50.904;4.200;2024-01-10T06:17:20;12.23;;;5.50;;
24157;SDS011;12316;50.904;4.200;2024-01-10T06:19:46;13.85;;;5.60;;
24157;SDS011;12316;50.904;4.200;2024-01-10T06:22:11;10.93;;;5.68;;
24157;SDS011;12316;50.904;4.200;2024-01-10T06:24:37;11.68;;;5.43;;
24157;SDS011;12316;50.904;4.200;2024-01-10T06:27:03;10.48;;;5.43;;
24157;SDS011;12316;50.904;4.200;2024-01-10T06:29:30;12.95;;;5.93;;
24157;SDS011;12316;50.904;4.200;2024-01-10T06:31:56;11.00;;;5.90;;
24157;SDS011;12316;50.904;4.200;2024-01-10T06:34:22;10.75;;;5.88;;
24157;SDS011;12316;50.904;4.200;2024-01-10T06:36:49;10.95;;;5.85;;
24157;SDS011;12316;50.904;4.200;2024-01-10T06:39:14;8.13;;;4.90;;
24157;SDS011;12316;50.904;4.200;2024-01-10T06:41:41;9.57;;;5.50;;
24157;SDS011;12316;50.904;4.200;2024-01-10T06:44:07;11.43;;;5.25;;
24157;SDS011;12316;50.904;4.200;2024-01-10T06:46:33;13.75;;;5.90;;
24157;SDS011;12316;50.904;4.200;2024-01-10T06:48:59;9.50;;;5.53;;
24157;SDS011;12316;50.904;4.200;2024-01-10T06:51:25;14.23;;;5.80;;
24157;SDS011;12316;50.904;4.200;2024-01-10T06:53:53;12.68;;;5.60;;
24157;SDS011;12316;50.904;4.200;2024-01-10T06:56:25;12.95;;;7.05;;
24157;SDS011;12316;50.904;4.200;2024-01-10T06:58:51;12.77;;;6.38;;
24157;SDS011;12316;50.904;4.200;2024-01-10T07:01:16;12.75;;;5.30;;
24157;SDS011;12316;50.904;4.200;2024-01-10T07:03:42;11.52;;;6.00;;
24157;SDS011;12316;50.904;4.200;2024-01-10T07:06:09;13.75;;;5.50;;
24157;SDS011;12316;50.904;4.200;2024-01-10T07:08:39;12.38;;;5.88;;
24157;SDS011;12316;50.904;4.200;2024-01-10T07:11:05;10.60;;;5.60;;
24157;SDS011;12316;50.904;4.200;2024-01-10T07:13:31;14.70;;;6.10;;
24157;SDS011;12316;50.904;4.200;2024-01-10T07:15:57;12.68;;;5.90;;
24157;SDS011;12316;50.904;4.200;2024-01-10T07:18:22;9.77;;;5.35;;
24157;SDS011;12316;50.904;4.200;2024-01-10T07:20:48;11.63;;;5.75;;
24157;SDS011;12316;50.904;4.200;2024-01-10T07:23:14;10.15;;;5.38;;
24157;SDS011;12316;50.904;4.200;2024-01-10T07:25:40;10.88;;;5.55;;
24157;SDS011;12316;50.904;4.200;2024-01-10T07:28:06;10.32;;;5.43;;
24157;SDS011;12316;50.904;4.200;2024-01-10T07:30:31;10.57;;;5.88;;
24157;SDS011;12316;50.904;4.200;2024-01-10T07:32:58;10.43;;;5.50;;
24157;SDS011;12316;50.904;4.200;2024-01-10T07:35:23;10.20;;;5.60;;
24157;SDS011;12316;50.904;4.200;2024-01-10T07:37:49;12.98;;;5.72;;
24157;SDS011;12316;50.904;4.200;2024-01-10T07:40:15;11.75;;;5.78;;
24157;SDS011;12316;50.904;4.200;2024-01-10T07:42:40;13.07;;;6.25;;
24157;SDS011;12316;50.904;4.200;2024-01-10T07:45:07;13.20;;;5.85;;
24157;SDS011;12316;50.904;4.200;2024-01-10T07:47:34;10.77;;;5.28;;
24157;SDS011;12316;50.904;4.200;2024-01-10T07:50:04;10.52;;;6.00;;
24157;SDS011;12316;50.904;4.200;2024-01-10T07:52:33;11.50;;;6.10;;
24157;SDS011;12316;50.904;4.200;2024-01-10T07:55:00;15.80;;;5.90;;
24157;SDS011;12316;50.904;4.200;2024-01-10T07:57:26;12.70;;;6.15;;
24157;SDS011;12316;50.904;4.200;2024-01-10T07:59:52;16.35;;;6.32;;
24157;SDS011;12316;50.904;4.200;2024-01-10T08:02:18;12.82;;;6.00;;
24157;SDS011;12316;50.904;4.200;2024-01-10T08:04:44;11.77;;;6.13;;
24157;SDS011;12316;50.904;4.200;2024-01-10T08:07:10;10.77;;;5.90;;
24157;SDS011;12316;50.904;4.200;2024-01-10T08:09:36;12.82;;;6.20;;
24157;SDS011;12316;50.904;4.200;2024-01-10T08:12:02;10.98;;;6.05;;
24157;SDS011;12316;50.904;4.200;2024-01-10T08:14:28;11.10;;;6.30;;
24157;SDS011;12316;50.904;4.200;2024-01-10T08:16:54;12.55;;;6.10;;
24157;SDS011;12316;50.904;4.200;2024-01-10T08:19:23;13.60;;;6.70;;
24157;SDS011;12316;50.904;4.200;2024-01-10T08:21:51;10.85;;;6.07;;
24157;SDS011;12316;50.904;4.200;2024-01-10T08:24:18;12.85;;;6.13;;
24157;SDS011;12316;50.904;4.200;2024-01-10T08:26:44;17.77;;;7.88;;
24157;SDS011;12316;50.904;4.200;2024-01-10T08:29:10;14.43;;;6.95;;
24157;SDS011;12316;50.904;4.200;2024-01-10T08:31:35;13.20;;;6.63;;
24157;SDS011;12316;50.904;4.200;2024-01-10T08:34:01;10.95;;;6.38;;
24157;SDS011;12316;50.904;4.200;2024-01-10T08:36:27;13.27;;;6.45;;
24157;SDS011;12316;50.904;4.200;2024-01-10T08:38:53;11.85;;;6.55;;
24157;SDS011;12316;50.904;4.200;2024-01-10T08:41:19;13.00;;;6.07;;
24157;SDS011;12316;50.904;4.200;2024-01-10T08:43:46;12.95;;;6.85;;
24157;SDS011;12316;50.904;4.200;2024-01-10T08:46:12;13.65;;;7.00;;
24157;SDS011;12316;50.904;4.200;2024-01-10T08:48:37;13.32;;;6.35;;
24157;SDS011;12316;50.904;4.200;2024-01-10T08:51:03;11.15;;;6.03;;
24157;SDS011;12316;50.904;4.200;2024-01-10T08:53:29;13.50;;;7.05;;
24157;SDS011;12316;50.904;4.200;2024-01-10T08:55:55;14.02;;;6.40;;
24157;SDS011;12316;50.904;4.200;2024-01-10T08:58:21;14.75;;;6.57;;
24157;SDS011;12316;50.904;4.200;2024-01-10T09:00:47;10.38;;;6.43;;
24157;SDS011;12316;50.904;4.200;2024-01-10T09:03:12;11.75;;;6.65;;
24157;SDS011;12316;50.904;4.200;2024-01-10T09:05:38;11.13;;;6.05;;
24157;SDS011;12316;50.904;4.200;2024-01-10T09:08:04;14.73;;;6.90;;
24157;SDS011;12316;50.904;4.200;2024-01-10T09:10:30;15.77;;;7.10;;
24157;SDS011;12316;50.904;4.200;2024-01-10T09:12:58;15.52;;;7.00;;
24157;SDS011;12316;50.904;4.200;2024-01-10T09:15:23;14.40;;;6.70;;
24157;SDS011;12316;50.904;4.200;2024-01-10T09:17:50;11.98;;;7.22;;
24157;SDS011;12316;50.904;4.200;2024-01-10T09:20:17;12.27;;;7.18;;
24157;SDS011;12316;50.904;4.200;2024-01-10T09:22:42;13.70;;;7.30;;
24157;SDS011;12316;50.904;4.200;2024-01-10T09:25:09;15.63;;;6.97;;
24157;SDS011;12316;50.904;4.200;2024-01-10T09:27:38;12.82;;;6.93;;
24157;SDS011;12316;50.904;4.200;2024-01-10T09:30:05;15.45;;;6.78;;
24157;SDS011;12316;50.904;4.200;2024-01-10T09:32:33;13.07;;;7.25;;
24157;SDS011;12316;50.904;4.200;2024-01-10T09:35:03;17.00;;;7.63;;
24157;SDS011;12316;50.904;4.200;2024-01-10T09:37:28;14.20;;;6.93;;
24157;SDS011;12316;50.904;4.200;2024-01-10T09:39:55;15.85;;;7.88;;
24157;SDS011;12316;50.904;4.200;2024-01-10T09:42:21;15.32;;;7.30;;
24157;SDS011;12316;50.904;4.200;2024-01-10T09:44:53;15.05;;;7.32;;
24157;SDS011;12316;50.904;4.200;2024-01-10T09:47:19;13.65;;;7.13;;
24157;SDS011;12316;50.904;4.200;2024-01-10T09:49:46;16.48;;;7.35;;
24157;SDS011;12316;50.904;4.200;2024-01-10T09:52:34;11.32;;;7.20;;
24157;SDS011;12316;50.904;4.200;2024-01-10T09:55:02;14.60;;;7.53;;
24157;SDS011;12316;50.904;4.200;2024-01-10T09:57:29;13.48;;;7.32;;
24157;SDS011;12316;50.904;4.200;2024-01-10T09:59:55;18.38;;;7.50;;
24157;SDS011;12316;50.904;4.200;2024-01-10T10:02:21;16.48;;;7.97;;
24157;SDS011;12316;50.904;4.200;2024-01-10T10:04:52;16.23;;;7.75;;
24157;SDS011;12316;50.904;4.200;2024-01-10T10:07:21;14.95;;;7.55;;
24157;SDS011;12316;50.904;4.200;2024-01-10T10:09:47;13.70;;;7.18;;
24157;SDS011;12316;50.904;4.200;2024-01-10T10:12:13;13.30;;;7.60;;
24157;SDS011;12316;50.904;4.200;2024-01-10T10:14:38;16.33;;;8.50;;
24157;SDS011;12316;50.904;4.200;2024-01-10T10:17:14;13.68;;;7.82;;
24157;SDS011;12316;50.904;4.200;2024-01-10T10:19:40;13.25;;;7.90;;
24157;SDS011;12316;50.904;4.200;2024-01-10T10:22:09;16.60;;;8.10;;
24157;SDS011;12316;50.904;4.200;2024-01-10T10:24:36;15.57;;;7.78;;
24157;SDS011;12316;50.904;4.200;2024-01-10T10:27:07;14.52;;;8.25;;
24157;SDS011;12316;50.904;4.200;2024-01-10T10:29:37;15.82;;;7.82;;
24157;SDS011;12316;50.904;4.200;2024-01-10T10:32:03;16.55;;;8.35;;
24157;SDS011;12316;50.904;4.200;2024-01-10T10:34:32;15.73;;;7.90;;
24157;SDS011;12316;50.904;4.200;2024-01-10T10:36:58;15.48;;;8.52;;
24157;SDS011;12316;50.904;4.200;2024-01-10T10:39:24;16.30;;;8.68;;
24157;SDS011;12316;50.904;4.200;2024-01-10T10:41:50;16.67;;;8.27;;
24157;SDS011;12316;50.904;4.200;2024-01-10T10:44:19;16.10;;;7.95;;
24157;SDS011;12316;50.904;4.200;2024-01-10T10:46:50;16.25;;;8.43;;
24157;SDS011;12316;50.904;4.200;2024-01-10T10:49:19;16.50;;;8.80;;
24157;SDS011;12316;50.904;4.200;2024-01-10T10:51:55;16.25;;;7.95;;
24157;SDS011;12316;50.904;4.200;2024-01-10T10:54:25;14.88;;;8.35;;
24157;SDS011;12316;50.904;4.200;2024-01-10T10:56:55;15.60;;;8.60;;
24157;SDS011;12316;50.904;4.200;2024-01-10T10:59:25;16.73;;;8.55;;
24157;SDS011;12316;50.904;4.200;2024-01-10T11:01:53;16.52;;;8.65;;
24157;SDS011;12316;50.904;4.200;2024-01-10T11:04:19;15.07;;;8.45;;
24157;SDS011;12316;50.904;4.200;2024-01-10T11:06:46;15.85;;;8.13;;
24157;SDS011;12316;50.904;4.200;2024-01-10T11:09:13;15.55;;;8.75;;
24157;SDS011;12316;50.904;4.200;2024-01-10T11:14:28;21.95;;;8.75;;
24157;SDS011;12316;50.904;4.200;2024-01-10T11:17:19;15.95;;;8.02;;
24157;SDS011;12316;50.904;4.200;2024-01-10T11:25:34;16.73;;;9.20;;
24157;SDS011;12316;50.904;4.200;2024-01-10T11:28:04;18.15;;;9.18;;
24157;SDS011;12316;50.904;4.200;2024-01-10T11:30:36;15.00;;;8.88;;
24157;SDS011;12316;50.904;4.200;2024-01-10T11:33:24;16.40;;;8.85;;
24157;SDS011;12316;50.904;4.200;2024-01-10T11:41:22;17.67;;;9.55;;
24157;SDS011;12316;50.904;4.200;2024-01-10T11:46:41;15.93;;;8.77;;
24157;SDS011;12316;50.904;4.200;2024-01-10T11:49:11;17.63;;;9.05;;
24157;SDS011;12316;50.904;4.200;2024-01-10T11:51:44;17.20;;;9.00;;
24157;SDS011;12316;50.904;4.200;2024-01-10T11:54:11;19.73;;;9.70;;
24157;SDS011;12316;50.904;4.200;2024-01-10T11:56:38;17.02;;;9.55;;
24157;SDS011;12316;50.904;4.200;2024-01-10T12:01:36;15.23;;;9.15;;
24157;SDS011;12316;50.904;4.200;2024-01-10T12:04:03;20.05;;;9.20;;
24157;SDS011;12316;50.904;4.200;2024-01-10T12:06:29;17.45;;;9.27;;
24157;SDS011;12316;50.904;4.200;2024-01-10T12:09:02;17.83;;;9.57;;
24157;SDS011;12316;50.904;4.200;2024-01-10T12:11:34;16.77;;;9.15;;
24157;SDS011;12316;50.904;4.200;2024-01-10T12:14:00;17.35;;;9.30;;
24157;SDS011;12316;50.904;4.200;2024-01-10T12:16:29;17.38;;;9.43;;
24157;SDS011;12316;50.904;4.200;2024-01-10T12:18:55;16.75;;;9.18;;
24157;SDS011;12316;50.904;4.200;2024-01-10T12:21:20;17.77;;;9.45;;
24157;SDS011;12316;50.904;4.200;2024-01-10T12:23:46;19.70;;;9.80;;
24157;SDS011;12316;50.904;4.200;2024-01-10T12:26:13;17.15;;;9.23;;
24157;SDS011;12316;50.904;4.200;2024-01-10T12:28:39;15.55;;;9.15;;
24157;SDS011;12316;50.904;4.200;2024-01-10T12:31:07;16.95;;;8.90;;
24157;SDS011;12316;50.904;4.200;2024-01-10T12:33:33;17.60;;;9.45;;
24157;SDS011;12316;50.904;4.200;2024-01-10T12:36:03;14.65;;;9.18;;
24157;SDS011;12316;50.904;4.200;2024-01-10T12:38:33;16.70;;;9.27;;
24157;SDS011;12316;50.904;4.200;2024-01-10T12:40:59;17.30;;;9.23;;
24157;SDS011;12316;50.904;4.200;2024-01-10T12:43:26;17.02;;;9.88;;
24157;SDS011;12316;50.904;4.200;2024-01-10T12:46:12;20.20;;;9.65;;
24157;SDS011;12316;50.904;4.200;2024-01-10T12:48:38;17.70;;;9.93;;
24157;SDS011;12316;50.904;4.200;2024-01-10T12:51:08;14.63;;;8.93;;
24157;SDS011;12316;50.904;4.200;2024-01-10T12:53:35;14.65;;;9.18;;
24157;SDS011;12316;50.904;4.200;2024-01-10T12:56:03;18.60;;;9.63;;
24157;SDS011;12316;50.904;4.200;2024-01-10T12:58:29;17.25;;;9.68;;
24157;SDS011;12316;50.904;4.200;2024-01-10T13:00:55;18.95;;;10.40;;
24157;SDS011;12316;50.904;4.200;2024-01-10T13:03:21;16.38;;;9.35;;
24157;SDS011;12316;50.904;4.200;2024-01-10T13:05:48;16.63;;;10.00;;
24157;SDS011;12316;50.904;4.200;2024-01-10T13:08:14;18.17;;;9.73;;
24157;SDS011;12316;50.904;4.200;2024-01-10T13:10:40;18.23;;;10.68;;
24157;SDS011;12316;50.904;4.200;2024-01-10T13:13:06;19.92;;;10.18;;
24157;SDS011;12316;50.904;4.200;2024-01-10T13:15:32;17.40;;;10.15;;
24157;SDS011;12316;50.904;4.200;2024-01-10T13:17:58;20.80;;;10.32;;
24157;SDS011;12316;50.904;4.200;2024-01-10T13:20:24;20.92;;;9.90;;
24157;SDS011;12316;50.904;4.200;2024-01-10T13:22:51;18.83;;;10.10;;
24157;SDS011;12316;50.904;4.200;2024-01-10T13:25:16;20.17;;;10.10;;
24157;SDS011;12316;50.904;4.200;2024-01-10T13:27:43;19.90;;;10.50;;
24157;SDS011;12316;50.904;4.200;2024-01-10T13:30:09;19.40;;;10.40;;
24157;SDS011;12316;50.904;4.200;2024-01-10T13:32:37;19.50;;;9.75;;
24157;SDS011;12316;50.904;4.200;2024-01-10T13:35:03;17.88;;;10.23;;
24157;SDS011;12316;50.904;4.200;2024-01-10T13:37:29;17.48;;;10.27;;
24157;SDS011;12316;50.904;4.200;2024-01-10T13:39:56;18.65;;;10.23;;
24157;SDS011;12316;50.904;4.200;2024-01-10T13:42:22;20.15;;;10.80;;
24157;SDS011;12316;50.904;4.200;2024-01-10T13:44:48;18.42;;;10.07;;
24157;SDS011;12316;50.904;4.200;2024-01-10T13:47:15;20.98;;;10.05;;
24157;SDS011;12316;50.904;4.200;2024-01-10T13:49:42;19.52;;;11.07;;
24157;SDS011;12316;50.904;4.200;2024-01-10T13:52:08;20.20;;;10.13;;
24157;SDS011;12316;50.904;4.200;2024-01-10T13:54:34;22.40;;;10.82;;
24157;SDS011;12316;50.904;4.200;2024-01-10T13:57:01;18.63;;;9.95;;
24157;SDS011;12316;50.904;4.200;2024-01-10T13:59:26;18.25;;;10.18;;
24157;SDS011;12316;50.904;4.200;2024-01-10T14:01:52;19.10;;;10.30;;
24157;SDS011;12316;50.904;4.200;2024-01-10T14:04:18;20.95;;;11.68;;
24157;SDS011;12316;50.904;4.200;2024-01-10T14:06:43;21.55;;;10.50;;
24157;SDS011;12316;50.904;4.200;2024-01-10T14:09:09;31.08;;;15.23;;
24157;SDS011;12316;50.904;4.200;2024-01-10T14:11:35;21.02;;;11.65;;
24157;SDS011;12316;50.904;4.200;2024-01-10T14:14:01;21.65;;;12.32;;
24157;SDS011;12316;50.904;4.200;2024-01-10T14:16:26;20.95;;;12.63;;
24157;SDS011;12316;50.904;4.200;2024-01-10T14:18:53;19.00;;;10.23;;
24157;SDS011;12316;50.904;4.200;2024-01-10T14:21:21;17.45;;;10.32;;
24157;SDS011;12316;50.904;4.200;2024-01-10T14:23:47;20.17;;;10.77;;
24157;SDS011;12316;50.904;4.200;2024-01-10T14:26:13;19.52;;;10.73;;
24157;SDS011;12316;50.904;4.200;2024-01-10T14:28:40;16.58;;;10.20;;
24157;SDS011;12316;50.904;4.200;2024-01-10T14:31:05;17.00;;;10.60;;
24157;SDS011;12316;50.904;4.200;2024-01-10T14:33:31;49.22;;;30.15;;
24157;SDS011;12316;50.904;4.200;2024-01-10T14:35:58;22.50;;;13.35;;
24157;SDS011;12316;50.904;4.200;2024-01-10T14:38:25;19.83;;;11.30;;
24157;SDS011;12316;50.904;4.200;2024-01-10T14:40:51;38.58;;;23.75;;
24157;SDS011;12316;50.904;4.200;2024-01-10T14:43:16;22.27;;;11.93;;
24157;SDS011;12316;50.904;4.200;2024-01-10T14:45:43;22.23;;;11.52;;
24157;SDS011;12316;50.904;4.200;2024-01-10T14:48:09;31.75;;;20.20;;
24157;SDS011;12316;50.904;4.200;2024-01-10T14:50:34;30.48;;;20.92;;